createdAt,value
2019-04-28T00:01:38.486Z,98444.75
2019-04-28T00:04:06.912Z,98446.45
2019-04-28T00:06:36.251Z,98458.09
2019-04-28T00:09:06.890Z,98399.20
2019-04-28T00:11:35.503Z,98465.57
2019-04-28T00:14:03.877Z,98464.81
2019-04-28T00:16:32.271Z,98460.86
2019-04-28T00:19:01.217Z,98462.97
2019-04-28T00:21:43.207Z,98460.92
2019-04-28T00:24:25.428Z,98463.78
2019-04-28T00:26:55.387Z,98463.72
2019-04-28T00:29:23.823Z,98461.65
2019-04-28T00:31:52.184Z,98457.68
2019-04-28T00:34:21.373Z,98460.20
2019-04-28T00:36:51.558Z,98459.39
2019-04-28T00:39:21.058Z,98465.37
2019-04-28T00:41:51.607Z,98468.97
2019-04-28T00:44:21.782Z,98473.45
2019-04-28T00:46:51.176Z,98471.58
2019-04-28T00:49:23.290Z,98482.63
2019-04-28T00:51:51.833Z,98473.11
2019-04-28T00:54:21.756Z,98476.63
2019-04-28T00:56:51.721Z,98473.06
2019-04-28T00:59:21.691Z,98461.23
2019-04-28T01:01:58.229Z,98473.52
2019-04-28T01:04:26.528Z,98480.61
2019-04-28T01:06:54.832Z,98475.09
2019-04-28T01:09:23.299Z,98476.59
2019-04-28T01:11:53.447Z,98479.51
2019-04-28T01:14:22.078Z,98478.03
2019-04-28T01:16:52.017Z,98478.85
2019-04-28T01:19:25.168Z,98485.03
2019-04-28T01:21:57.708Z,98478.85
2019-04-28T01:24:26.093Z,98481.63
2019-04-28T01:26:56.154Z,98487.19
2019-04-28T01:29:24.474Z,98482.78
2019-04-28T01:32:10.689Z,98478.95
2019-04-28T01:34:40.002Z,98485.95
2019-04-28T01:37:09.721Z,98491.12
2019-04-28T01:39:41.033Z,98491.18
2019-04-28T01:42:10.521Z,98491.41
2019-04-28T01:44:39.545Z,98489.16
2019-04-28T01:47:10.471Z,98484.61
2019-04-28T01:49:40.572Z,98494.78
2019-04-28T01:52:10.429Z,98499.63
2019-04-28T01:54:40.253Z,98499.27
2019-04-28T01:57:10.149Z,98497.17
2019-04-28T01:59:40.277Z,98493.47
2019-04-28T02:02:10.173Z,98492.88
2019-04-28T02:04:40.212Z,98484.87
2019-04-28T02:07:10.896Z,98490.63
2019-04-28T02:09:39.552Z,98493.97
2019-04-28T02:12:07.919Z,98488.40
2019-04-28T02:14:36.578Z,98485.00
2019-04-28T02:17:05.215Z,98488.47
2019-04-28T02:19:33.608Z,98491.80
2019-04-28T02:22:21.471Z,98489.22
2019-04-28T02:24:50.512Z,98482.81
2019-04-28T02:27:20.368Z,98491.05
2019-04-28T02:29:49.889Z,98485.92
2019-04-28T02:32:23.853Z,98483.80
2019-04-28T02:34:50.683Z,98480.95
2019-04-28T02:37:20.567Z,98484.64
2019-04-28T02:39:50.556Z,98482.94
2019-04-28T02:42:20.860Z,98487.26
2019-04-28T02:44:50.454Z,98488.56
2019-04-28T02:47:21.898Z,98482.42
2019-04-28T02:49:50.924Z,98484.64
2019-04-28T02:52:30.907Z,98488.50
2019-04-28T02:55:03.068Z,98487.09
2019-04-28T02:57:30.857Z,98484.94
2019-04-28T03:00:00.471Z,98487.98
2019-04-28T03:02:31.651Z,98488.95
2019-04-28T03:05:00.314Z,98492.20
2019-04-28T03:07:31.234Z,98496.37
2019-04-28T03:10:03.219Z,98484.45
2019-04-28T03:12:31.397Z,98479.73
2019-04-28T03:15:00.623Z,98478.42
2019-04-28T03:17:31.047Z,98484.61
2019-04-28T03:20:01.098Z,98479.11
2019-04-28T03:22:32.933Z,98477.38
2019-04-28T03:25:01.096Z,98479.02
2019-04-28T03:27:36.970Z,98476.30
2019-04-28T03:30:13.356Z,98481.47
2019-04-28T03:32:52.444Z,98488.07
2019-04-28T03:35:13.584Z,98488.86
2019-04-28T03:37:42.155Z,98483.92
2019-04-28T03:40:11.483Z,98481.23
2019-04-28T03:42:41.104Z,98491.95
2019-04-28T03:45:13.340Z,98481.86
2019-04-28T03:47:41.655Z,98477.34
2019-04-28T03:50:10.599Z,98482.27
2019-04-28T03:52:41.445Z,98486.84
2019-04-28T03:55:11.096Z,98482.92
2019-04-28T03:57:41.269Z,98483.52
2019-04-28T04:00:11.336Z,98487.90
2019-04-28T04:02:41.193Z,98482.38
2019-04-28T04:05:11.126Z,98474.82
2019-04-28T04:07:42.795Z,98478.61
2019-04-28T04:10:16.091Z,98480.77
2019-04-28T04:12:46.342Z,98473.30
2019-04-28T04:15:24.598Z,98476.31
2019-04-28T04:18:03.610Z,98485.61
2019-04-28T04:20:32.204Z,98475.92
2019-04-28T04:23:01.413Z,98484.25
2019-04-28T04:25:31.393Z,98488.39
2019-04-28T04:28:03.453Z,98485.73
2019-04-28T04:30:31.097Z,98495.73
2019-04-28T04:33:01.239Z,98502.17
2019-04-28T04:35:31.767Z,98503.45
2019-04-28T04:38:00.773Z,98504.02
2019-04-28T04:40:31.756Z,98505.94
2019-04-28T04:43:01.626Z,98508.08
2019-04-28T04:45:30.495Z,98511.14
2019-04-28T04:48:00.628Z,98514.35
2019-04-28T04:50:31.296Z,98514.05
2019-04-28T04:53:02.327Z,98520.44
2019-04-28T04:55:31.593Z,98517.67
2019-04-28T04:58:00.903Z,98534.98
2019-04-28T05:00:46.765Z,98536.69
2019-04-28T05:03:22.878Z,98528.89
2019-04-28T05:05:51.174Z,98540.98
2019-04-28T05:08:20.294Z,98547.00
2019-04-28T05:10:50.292Z,98538.04
2019-04-28T05:13:20.062Z,98545.67
2019-04-28T05:15:50.697Z,98545.00
2019-04-28T05:18:19.978Z,98551.08
2019-04-28T05:20:50.335Z,98560.08
2019-04-28T05:23:26.202Z,98560.08
2019-04-28T05:25:54.526Z,98567.57
2019-04-28T05:28:22.827Z,98562.17
2019-04-28T05:30:51.122Z,98566.31
2019-04-28T05:33:31.994Z,98571.01
2019-04-28T05:35:59.227Z,98572.49
2019-04-28T05:38:30.369Z,98584.30
2019-04-28T05:41:02.382Z,98577.00
2019-04-28T05:43:29.925Z,98575.94
2019-04-28T05:46:00.285Z,98577.98
2019-04-28T05:48:36.654Z,98570.22
2019-04-28T05:51:06.670Z,98575.87
2019-04-28T05:53:36.596Z,98585.51
2019-04-28T05:56:21.378Z,98589.63
2019-04-28T05:58:51.314Z,98585.77
2019-04-28T06:01:21.338Z,98583.73
2019-04-28T06:03:49.775Z,98592.95
2019-04-28T06:06:20.437Z,98586.51
2019-04-28T06:09:05.685Z,98591.13
2019-04-28T06:11:39.809Z,98581.89
2019-04-28T06:14:09.941Z,98585.41
2019-04-28T06:16:40.436Z,98603.91
2019-04-28T06:19:10.283Z,98606.94
2019-04-28T06:21:38.770Z,98589.30
2019-04-28T06:24:07.063Z,98592.84
2019-04-28T06:26:35.363Z,98592.34
2019-04-28T06:29:03.679Z,98588.33
2019-04-28T06:31:32.290Z,98577.24
2019-04-28T06:34:00.627Z,98579.16
2019-04-28T06:36:29.261Z,98566.23
2019-04-28T06:38:57.550Z,98555.31
2019-04-28T06:41:25.869Z,98566.38
2019-04-28T06:43:54.162Z,98565.48
2019-04-28T06:46:22.892Z,98567.22
2019-04-28T06:48:51.183Z,98569.16
2019-04-28T06:51:19.511Z,98555.63
2019-04-28T06:53:47.810Z,98554.17
2019-04-28T06:56:16.105Z,98552.12
2019-04-28T06:58:44.428Z,98547.50
2019-04-28T07:01:13.081Z,98557.47
2019-04-28T07:03:41.399Z,98561.47
2019-04-28T07:06:09.691Z,98561.75
2019-04-28T07:08:38.024Z,98556.86
2019-04-28T07:11:06.711Z,98559.48
2019-04-28T07:13:35.080Z,98562.38
2019-04-28T07:16:03.463Z,98560.31
2019-04-28T07:18:31.764Z,98561.55
2019-04-28T07:21:01.733Z,98555.09
2019-04-28T07:23:31.398Z,98552.41
2019-04-28T07:25:59.710Z,98554.67
2019-04-28T07:28:28.003Z,98562.72
2019-04-28T07:30:56.838Z,98567.63
2019-04-28T07:33:35.513Z,98561.37
2019-04-28T07:35:55.442Z,98572.08
2019-04-28T07:38:23.755Z,98556.75
2019-04-28T07:40:52.176Z,98558.27
2019-04-28T07:43:20.575Z,98579.34
2019-04-28T07:45:48.888Z,98589.83
2019-04-28T07:48:17.558Z,98576.44
2019-04-28T07:50:45.846Z,98573.09
2019-04-28T07:53:15.867Z,98580.69
2019-04-28T07:55:44.229Z,98577.76
2019-04-28T07:58:12.542Z,98578.98
2019-04-28T08:00:40.907Z,98581.85
2019-04-28T08:03:09.206Z,98577.72
2019-04-28T08:05:37.517Z,98577.45
2019-04-28T08:08:05.808Z,98576.88
2019-04-28T08:10:34.428Z,98590.92
2019-04-28T08:13:02.876Z,98582.11
2019-04-28T08:15:31.425Z,98581.78
2019-04-28T08:18:00.079Z,98593.59
2019-04-28T08:20:28.370Z,98596.67
2019-04-28T08:22:56.678Z,98593.84
2019-04-28T08:25:25.440Z,98594.58
2019-04-28T08:27:53.848Z,98592.45
2019-04-28T08:30:22.605Z,98590.01
2019-04-28T08:33:04.924Z,98591.28
2019-04-28T08:35:33.725Z,98591.78
2019-04-28T08:38:02.399Z,98581.33
2019-04-28T08:40:30.766Z,98599.76
2019-04-28T08:42:59.024Z,98591.22
2019-04-28T08:45:27.329Z,98596.17
2019-04-28T08:47:57.941Z,98604.16
2019-04-28T08:50:25.674Z,98604.32
2019-04-28T08:52:54.028Z,98605.41
2019-04-28T08:55:22.325Z,98597.70
2019-04-28T08:57:50.648Z,98597.27
2019-04-28T09:00:20.755Z,98603.44
2019-04-28T09:02:49.139Z,98603.63
2019-04-28T09:05:17.434Z,98596.98
2019-04-28T09:07:47.389Z,98607.73
2019-04-28T09:10:15.756Z,98598.45
2019-04-28T09:12:44.072Z,98599.55
2019-04-28T09:15:12.639Z,98591.91
2019-04-28T09:17:40.974Z,98599.64
2019-04-28T09:20:10.109Z,98608.42
2019-04-28T09:22:38.550Z,98599.62
2019-04-28T09:25:07.439Z,98596.74
2019-04-28T09:27:35.725Z,98587.16
2019-04-28T09:30:05.874Z,98597.99
2019-04-28T09:32:34.678Z,98589.13
2019-04-28T09:35:03.985Z,98594.98
2019-04-28T09:37:32.227Z,98585.63
2019-04-28T09:40:04.995Z,98586.67
2019-04-28T09:42:34.957Z,98594.94
2019-04-28T09:45:21.399Z,98578.91
2019-04-28T09:47:49.720Z,98586.04
2019-04-28T09:50:18.021Z,98584.08
2019-04-28T09:52:48.739Z,98590.16
2019-04-28T09:55:16.433Z,98590.06
2019-04-28T09:57:44.821Z,98577.28
2019-04-28T10:00:13.254Z,98575.86
2019-04-28T10:02:41.876Z,98574.55
2019-04-28T10:05:11.064Z,98578.19
2019-04-28T10:07:39.364Z,98572.55
2019-04-28T10:10:08.735Z,98577.58
2019-04-28T10:12:37.098Z,98567.03
2019-04-28T10:15:09.929Z,98566.94
2019-04-28T10:17:38.417Z,98562.98
2019-04-28T10:20:08.469Z,98549.31
2019-04-28T10:22:36.884Z,98558.22
2019-04-28T10:25:07.820Z,98562.63
2019-04-28T10:27:36.448Z,98548.63
2019-04-28T10:30:09.542Z,98554.73
2019-04-28T10:32:37.837Z,98554.14
2019-04-28T10:35:08.708Z,98548.46
2019-04-28T10:37:37.389Z,98555.95
2019-04-28T10:40:14.671Z,98546.16
2019-04-28T10:42:42.980Z,98543.94
2019-04-28T10:45:13.097Z,98539.80
2019-04-28T10:47:41.737Z,98540.52
2019-04-28T10:50:10.762Z,98532.01
2019-04-28T10:52:39.079Z,98528.45
2019-04-28T10:55:08.209Z,98523.97
2019-04-28T10:57:36.533Z,98532.30
2019-04-28T11:00:08.596Z,98534.41
2019-04-28T11:02:36.902Z,98534.20
2019-04-28T11:05:09.108Z,98533.12
2019-04-28T11:07:37.663Z,98538.39
2019-04-28T11:10:09.724Z,98535.55
2019-04-28T11:12:38.094Z,98532.44
2019-04-28T11:15:09.714Z,98528.24
2019-04-28T11:17:38.391Z,98524.95
2019-04-28T11:20:07.292Z,98527.12
2019-04-28T11:22:35.594Z,98527.59
2019-04-28T11:25:06.428Z,98522.66
2019-04-28T11:27:34.741Z,98524.61
2019-04-28T11:30:04.482Z,98523.26
2019-04-28T11:32:32.779Z,98523.87
2019-04-28T11:35:21.446Z,98531.17
2019-04-28T11:37:41.559Z,98523.30
2019-04-28T11:40:09.923Z,98525.78
2019-04-28T11:42:38.255Z,98526.70
2019-04-28T11:45:07.375Z,98533.61
2019-04-28T11:47:35.761Z,98526.48
2019-04-28T11:50:04.210Z,98526.48
2019-04-28T11:52:32.507Z,98521.52
2019-04-28T11:55:01.434Z,98524.55
2019-04-28T11:57:29.720Z,98509.32
2019-04-28T11:59:58.398Z,98519.57
2019-04-28T12:02:26.779Z,98508.14
2019-04-28T12:04:56.731Z,98508.14
2019-04-28T12:07:25.482Z,98498.78
2019-04-28T12:10:04.467Z,98500.00
2019-04-28T12:12:46.015Z,98508.34
2019-04-28T12:15:32.013Z,98504.58
2019-04-28T12:18:04.682Z,98503.44
2019-04-28T12:20:33.112Z,98492.75
2019-04-28T12:23:01.485Z,98496.58
2019-04-28T12:25:29.825Z,98491.00
2019-04-28T12:27:58.619Z,98484.56
2019-04-28T12:30:26.936Z,98485.24
2019-04-28T12:32:55.588Z,98484.87
2019-04-28T12:35:23.925Z,98482.95
2019-04-28T12:37:52.227Z,98479.54
2019-04-28T12:40:22.607Z,98479.87
2019-04-28T12:42:50.584Z,98482.87
2019-04-28T12:45:18.948Z,98476.28
2019-04-28T12:47:47.269Z,98465.02
2019-04-28T12:50:23.184Z,98453.55
2019-04-28T12:52:52.059Z,98439.06
2019-04-28T12:55:20.363Z,98441.14
2019-04-28T12:57:48.691Z,98436.63
2019-04-28T13:00:28.042Z,98439.66
2019-04-28T13:03:15.873Z,98450.53
2019-04-28T13:05:45.993Z,98440.88
2019-04-28T13:08:14.732Z,98431.05
2019-04-28T13:10:43.107Z,98429.02
2019-04-28T13:13:11.414Z,98439.20
2019-04-28T13:15:40.274Z,98430.70
2019-04-28T13:18:08.647Z,98416.91
2019-04-28T13:20:36.977Z,98404.44
2019-04-28T13:23:05.342Z,98404.21
2019-04-28T13:25:33.649Z,98398.64
2019-04-28T13:28:01.956Z,98407.40
2019-04-28T13:30:30.259Z,98409.77
2019-04-28T13:32:58.850Z,98403.83
2019-04-28T13:35:27.214Z,98389.26
2019-04-28T13:37:55.533Z,98395.02
2019-04-28T13:40:28.038Z,98387.66
2019-04-28T13:42:56.376Z,98385.08
2019-04-28T13:45:26.325Z,98381.25
2019-04-28T13:47:54.646Z,98381.55
2019-04-28T13:50:25.834Z,98391.67
2019-04-28T13:52:54.190Z,98390.56
2019-04-28T13:55:27.178Z,98381.06
2019-04-28T13:57:56.891Z,98383.63
2019-04-28T14:00:33.038Z,98386.50
2019-04-28T14:03:02.966Z,98382.18
2019-04-28T14:05:36.317Z,98384.53
2019-04-28T14:08:04.579Z,98382.03
2019-04-28T14:10:32.896Z,98378.50
2019-04-28T14:13:01.210Z,98378.03
2019-04-28T14:15:29.751Z,98385.32
2019-04-28T14:17:58.312Z,98377.09
2019-04-28T14:20:26.782Z,98383.99
2019-04-28T14:22:55.222Z,98376.80
2019-04-28T14:25:23.952Z,98374.38
2019-04-28T14:27:52.280Z,98373.21
2019-04-28T14:30:20.746Z,98372.80
2019-04-28T14:32:49.334Z,98363.36
2019-04-28T14:35:18.097Z,98367.28
2019-04-28T14:37:46.768Z,98367.67
2019-04-28T14:40:15.473Z,98362.39
2019-04-28T14:42:43.782Z,98365.09
2019-04-28T14:45:12.779Z,98369.88
2019-04-28T14:47:41.088Z,98362.72
2019-04-28T14:50:09.803Z,98359.38
2019-04-28T14:52:38.141Z,98350.16
2019-04-28T14:55:07.445Z,98357.43
2019-04-28T14:57:35.770Z,98349.59
2019-04-28T15:00:06.480Z,98350.94
2019-04-28T15:02:45.587Z,98351.02
2019-04-28T15:05:15.721Z,98343.11
2019-04-28T15:07:54.387Z,98339.25
2019-04-28T15:10:42.676Z,98348.02
2019-04-28T15:13:10.986Z,98337.60
2019-04-28T15:15:39.425Z,98337.37
2019-04-28T15:18:07.852Z,98338.27
2019-04-28T15:20:36.144Z,98332.92
2019-04-28T15:23:04.943Z,98334.79
2019-04-28T15:25:33.255Z,98334.79
2019-04-28T15:28:01.556Z,98333.41
2019-04-28T15:30:29.947Z,98328.48
2019-04-28T15:32:58.307Z,98328.17
2019-04-28T15:35:26.684Z,98335.16
2019-04-28T15:37:54.978Z,98318.05
2019-04-28T15:40:23.375Z,98318.36
2019-04-28T15:42:51.787Z,98315.36
2019-04-28T15:45:20.487Z,98326.47
2019-04-28T15:47:48.956Z,98318.20
2019-04-28T15:50:17.311Z,98325.57
2019-04-28T15:52:45.609Z,98327.28
2019-04-28T15:55:15.559Z,98332.20
2019-04-28T15:57:44.275Z,98328.50
2019-04-28T16:00:14.647Z,98318.43
2019-04-28T16:02:42.935Z,98322.12
2019-04-28T16:05:11.474Z,98322.34
2019-04-28T16:07:39.860Z,98325.36
2019-04-28T16:10:08.592Z,98329.31
2019-04-28T16:12:36.978Z,98317.41
2019-04-28T16:15:07.467Z,98313.39
2019-04-28T16:17:36.176Z,98318.88
2019-04-28T16:20:06.207Z,98321.19
2019-04-28T16:22:34.601Z,98323.13
2019-04-28T16:25:03.332Z,98323.86
2019-04-28T16:27:31.653Z,98317.59
2019-04-28T16:29:59.954Z,98325.41
2019-04-28T16:32:28.249Z,98312.79
2019-04-28T16:34:56.568Z,98308.92
2019-04-28T16:37:38.217Z,98305.68
2019-04-28T16:39:55.853Z,98309.47
2019-04-28T16:42:28.547Z,98312.89
2019-04-28T16:45:08.108Z,98305.14
2019-04-28T16:47:36.977Z,98317.25
2019-04-28T16:50:06.879Z,98310.24
2019-04-28T16:52:35.192Z,98317.53
2019-04-28T16:55:15.425Z,98312.61
2019-04-28T16:57:45.375Z,98320.72
2019-04-28T17:00:15.477Z,98324.68
2019-04-28T17:02:44.660Z,98318.55
2019-04-28T17:05:13.277Z,98320.25
2019-04-28T17:07:52.553Z,98317.95
2019-04-28T17:10:12.346Z,98325.91
2019-04-28T17:12:40.654Z,98333.25
2019-04-28T17:15:09.304Z,98323.69
2019-04-28T17:17:37.601Z,98337.83
2019-04-28T17:20:07.190Z,98339.19
2019-04-28T17:22:35.515Z,98344.45
2019-04-28T17:25:05.982Z,98345.53
2019-04-28T17:27:34.350Z,98346.57
2019-04-28T17:30:03.286Z,98348.91
2019-04-28T17:32:31.602Z,98355.55
2019-04-28T17:34:59.893Z,98350.22
2019-04-28T17:37:28.270Z,98346.49
2019-04-28T17:39:56.567Z,98352.50
2019-04-28T17:42:24.967Z,98356.72
2019-04-28T17:44:53.716Z,98355.16
2019-04-28T17:47:22.961Z,98355.03
2019-04-28T17:49:51.499Z,98351.87
2019-04-28T17:52:19.792Z,98355.09
2019-04-28T17:54:48.336Z,98355.91
2019-04-28T17:57:16.706Z,98356.25
2019-04-28T17:59:46.071Z,98365.88
2019-04-28T18:02:32.490Z,98359.20
2019-04-28T18:05:05.874Z,98362.99
2019-04-28T18:07:35.877Z,98359.46
2019-04-28T18:10:08.481Z,98363.45
2019-04-28T18:12:37.252Z,98374.47
2019-04-28T18:15:12.190Z,98369.44
2019-04-28T18:17:48.068Z,98377.09
2019-04-28T18:20:16.925Z,98378.73
2019-04-28T18:22:45.243Z,98386.56
2019-04-28T18:25:14.217Z,98387.94
2019-04-28T18:27:42.530Z,98400.72
2019-04-28T18:30:12.626Z,98392.31
2019-04-28T18:35:26.349Z,98396.45
2019-04-28T18:38:12.397Z,98406.97
2019-04-28T18:40:51.203Z,98404.73
2019-04-28T18:43:23.840Z,98407.37
2019-04-28T18:45:53.305Z,98415.44
2019-04-28T18:48:21.701Z,98421.34
2019-04-28T18:50:50.443Z,98422.41
2019-04-28T18:53:18.749Z,98424.77
2019-04-28T18:55:47.093Z,98433.70
2019-04-28T18:58:15.391Z,98430.02
2019-04-28T19:00:45.375Z,98436.50
2019-04-28T19:03:13.707Z,98435.94
2019-04-28T19:05:43.663Z,98438.84
2019-04-28T19:08:13.602Z,98443.13
2019-04-28T19:10:55.796Z,98447.63
2019-04-28T19:13:43.693Z,98447.07
2019-04-28T19:16:13.639Z,98452.14
2019-04-28T19:18:55.380Z,98460.29
2019-04-28T19:21:23.786Z,98457.97
2019-04-28T19:23:54.159Z,98461.64
2019-04-28T19:26:22.682Z,98467.02
2019-04-28T19:28:51.385Z,98463.62
2019-04-28T19:31:19.711Z,98464.00
2019-04-28T19:33:48.150Z,98462.41
2019-04-28T19:36:16.576Z,98466.63
2019-04-28T19:38:45.035Z,98464.69
2019-04-28T19:41:13.709Z,98467.04
2019-04-28T19:43:42.131Z,98464.77
2019-04-28T19:46:12.117Z,98466.66
2019-04-28T19:48:40.763Z,98468.73
2019-04-28T19:51:09.187Z,98469.31
2019-04-28T19:53:37.488Z,98471.91
2019-04-28T19:56:07.446Z,98471.63
2019-04-28T19:58:37.430Z,98469.23
2019-04-28T20:01:07.455Z,98464.83
2019-04-28T20:03:35.819Z,98467.72
2019-04-28T20:06:04.183Z,98467.36
2019-04-28T20:08:32.555Z,98474.95
2019-04-28T20:11:00.846Z,98479.06
2019-04-28T20:13:31.455Z,98481.70
2019-04-28T20:15:59.258Z,98482.06
2019-04-28T20:18:29.538Z,98480.66
2019-04-28T20:20:58.007Z,98486.00
2019-04-28T20:23:26.333Z,98486.18
2019-04-28T20:25:54.673Z,98491.42
2019-04-28T20:28:23.429Z,98487.39
2019-04-28T20:30:51.745Z,98485.63
2019-04-28T20:33:20.351Z,98480.89
2019-04-28T20:35:50.383Z,98485.96
2019-04-28T20:38:26.485Z,98487.66
2019-04-28T20:40:56.442Z,98491.48
2019-04-28T20:43:26.602Z,98484.08
2019-04-28T20:45:54.925Z,98485.11
2019-04-28T20:48:23.684Z,98485.75
2019-04-28T20:50:52.028Z,98490.53
2019-04-28T20:53:20.426Z,98480.16
2019-04-28T20:55:48.717Z,98486.32
2019-04-28T20:58:17.171Z,98481.74
2019-04-28T21:00:45.494Z,98482.78
2019-04-28T21:03:13.918Z,98475.08
2019-04-28T21:05:42.272Z,98475.09
2019-04-28T21:08:10.595Z,98475.72
2019-04-28T21:10:39.184Z,98484.06
2019-04-28T21:13:07.551Z,98485.50
2019-04-28T21:15:36.264Z,98480.62
2019-04-28T21:18:04.700Z,98487.78
2019-04-28T21:20:33.321Z,98490.27
2019-04-28T21:23:01.649Z,98488.52
2019-04-28T21:25:30.410Z,98483.16
2019-04-28T21:27:59.505Z,98479.32
2019-04-28T21:30:27.806Z,98476.59
2019-04-28T21:32:56.470Z,98474.15
2019-04-28T21:35:25.021Z,98472.66
2019-04-28T21:37:53.453Z,98473.38
2019-04-28T21:40:22.429Z,98469.77
2019-04-28T21:43:01.541Z,98468.81
2019-04-28T21:45:46.242Z,98471.52
2019-04-28T21:48:16.260Z,98471.91
2019-04-28T21:50:45.248Z,98476.76
2019-04-28T21:53:13.575Z,98468.43
2019-04-28T21:55:41.879Z,98478.81
2019-04-28T21:58:10.179Z,98470.22
2019-04-28T22:00:50.747Z,98475.16
2019-04-28T22:03:19.061Z,98477.26
2019-04-28T22:05:47.351Z,98480.64
2019-04-28T22:08:15.735Z,98477.55
2019-04-28T22:10:44.047Z,98486.68
2019-04-28T22:13:12.364Z,98484.69
2019-04-28T22:15:40.692Z,98480.47
2019-04-28T22:18:09.126Z,98477.28
2019-04-28T22:20:37.807Z,98476.92
2019-04-28T22:23:18.259Z,98477.50
2019-04-28T22:25:40.818Z,98482.78
2019-04-28T22:28:09.314Z,98477.69
2019-04-28T22:30:37.675Z,98477.86
2019-04-28T22:33:07.015Z,98474.66
2019-04-28T22:35:36.390Z,98479.04
2019-04-28T22:38:05.538Z,98475.18
2019-04-28T22:40:33.834Z,98476.40
2019-04-28T22:43:02.233Z,98476.95
2019-04-28T22:45:30.524Z,98475.16
2019-04-28T22:47:58.820Z,98477.94
2019-04-28T22:50:35.499Z,98478.72
2019-04-28T22:53:04.180Z,98483.13
2019-04-28T22:55:34.270Z,98480.47
2019-04-28T22:58:06.873Z,98477.06
2019-04-28T23:00:36.917Z,98483.45
2019-04-28T23:03:05.749Z,98483.37
2019-04-28T23:05:34.042Z,98482.44
2019-04-28T23:08:02.446Z,98482.85
2019-04-28T23:10:30.747Z,98490.14
2019-04-28T23:12:59.135Z,98477.03
2019-04-28T23:15:27.806Z,98484.19
2019-04-28T23:17:56.186Z,98488.04
2019-04-28T23:20:26.195Z,98484.04
2019-04-28T23:22:54.933Z,98490.21
2019-04-28T23:25:23.246Z,98488.11
2019-04-28T23:27:51.544Z,98482.07
2019-04-28T23:30:40.780Z,98487.20
2019-04-28T23:33:09.443Z,98480.43
2019-04-28T23:35:37.767Z,98482.83
2019-04-28T23:38:06.076Z,98488.60
2019-04-28T23:40:36.044Z,98485.44
2019-04-28T23:43:06.162Z,98475.05
2019-04-28T23:45:34.890Z,98476.66
2019-04-28T23:48:03.202Z,98477.52
2019-04-28T23:50:33.139Z,98477.91
2019-04-28T23:53:03.097Z,98471.38
2019-04-28T23:55:31.392Z,98471.14
2019-04-28T23:57:59.929Z,98476.60
